Saturday, November 29, 2014, 3:23 AM EST

KUNV, State College, University Park Airport

Location: State College, PA, United States Lat: 40.85
Local Time: 3:23 AM EST ( 8:23 GMT) Lon: -77.85
Time Zone: US/Eastern Elev: 1240 ft

Show me the last for .
Show Decoded

2014-11-29 02:55 METAR KUNV 290755Z AUTO 00000KT 3SM -SN SCT014 OVC022 M05/M08 A3023 RMK AO2
                 T10551080 =
2014-11-29 02:35 METAR KUNV 290735Z AUTO 27003KT 5SM -SN BKN022 OVC029 M06/M09 A3023 RMK AO2
                 T10561092 =
2014-11-29 02:15 METAR KUNV 290715Z AUTO 28004KT 10SM SCT026 BKN033 OVC049 M05/M10 A3022 RMK AO2
                 T10541100 =
2014-11-29 01:55 METAR KUNV 290655Z AUTO 00000KT 10SM SCT050 BKN060 OVC090 M06/M10 A3021 RMK AO2
                 T10601096 =
2014-11-29 01:35 METAR KUNV 290635Z AUTO 00000KT 10SM SCT060 OVC090 M06/M09 A3021 RMK AO2
                 T10651089 =
2014-11-29 01:15 METAR KUNV 290615Z AUTO 00000KT 10SM SCT060 BKN070 OVC085 M06/M10 A3021 RMK AO2
                 T10581096 =
2014-11-29 00:55 METAR KUNV 290555Z AUTO 00000KT 10SM SCT060 BKN070 OVC080 M06/M09 A3021 RMK AO2
                 T10601092 11048 21070 =
2014-11-29 00:35 METAR KUNV 290535Z AUTO 00000KT 10SM SCT070 BKN080 OVC100 M06/M09 A3021 RMK AO2
                 T10601095 =
2014-11-29 00:15 METAR KUNV 290515Z AUTO 00000KT 10SM SCT070 OVC100 M06/M10 A3021 RMK AO2
                 T10571103 =
2014-11-28 23:55 METAR KUNV 290455Z AUTO 00000KT 10SM SCT070 OVC090 M06/M10 A3021 RMK AO2
                 T10561097 =
2014-11-28 23:35 METAR KUNV 290435Z AUTO 00000KT 10SM BKN110 M06/M09 A3020 RMK AO2 T10601090 =
2014-11-28 23:15 METAR KUNV 290415Z AUTO 00000KT 10SM OVC100 M06/M10 A3021 RMK AO2 T10571102 =
2014-11-28 22:55 METAR KUNV 290355Z AUTO 00000KT 10SM OVC100 M06/M10 A3021 RMK AO2 T10581105
                 410111070 =
2014-11-28 22:35 METAR KUNV 290335Z AUTO 00000KT 10SM OVC110 M06/M10 A3021 RMK AO2 T10621104 =
2014-11-28 22:15 METAR KUNV 290315Z AUTO 00000KT 10SM BKN120 M06/M11 A3021 RMK AO2 T10601107 =
2014-11-28 21:55 METAR KUNV 290255Z AUTO 00000KT 10SM SCT120 M06/M11 A3021 RMK AO2 T10651107 =
2014-11-28 20:53 METAR KUNV 290153Z 26003KT 10SM SKC M05/M11 A3022 =
2014-11-28 19:53 METAR KUNV 290053Z 22004KT 10SM SKC M06/M11 A3022 =
2014-11-28 17:53 METAR KUNV 282253Z 27006KT 10SM SCT037 M04/M11 A3022 =
2014-11-28 16:53 METAR KUNV 282153Z 28008KT 10SM BKN041 M04/M11 A3021 =
2014-11-28 15:53 METAR KUNV 282053Z 28011KT 10SM BKN039 M03/M10 A3020 =
2014-11-28 13:53 METAR KUNV 281853Z 28012KT 10SM BKN043 M02/M10 A3020 =
2014-11-28 12:53 METAR KUNV 281753Z 28012KT 10SM BKN041 M02/M10 A3021 =
2014-11-28 11:53 METAR KUNV 281653Z 29013G18KT 10SM BKN041 M03/M09 A3023 =
2014-11-28 10:53 METAR KUNV 281553Z 28012G17KT 8SM -SN BKN032 OVC038 M03/M08 A3023 =
2014-11-28 09:53 METAR KUNV 281453Z 30012KT 10SM BKN035 M03/M09 A3023 =
2014-11-28 08:53 METAR KUNV 281353Z 30012KT 10SM BKN030 M03/M08 A3024 =
2014-11-28 07:53 METAR KUNV 281253Z 31008KT 10SM SCT040 M04/M08 A3023 =
2014-11-28 05:53 METAR KUNV 281053Z 31008KT 10SM SKC M03/M08 A3019 =
2014-11-28 05:35 METAR KUNV 281035Z AUTO 31008KT 280V340 10SM CLR M03/M08 A3018 RMK AO2 T10301080
                 =
2014-11-28 05:15 METAR KUNV 281015Z AUTO 29008G14KT 10SM CLR M03/M08 A3017 RMK AO2 T10291080 =
2014-11-28 04:55 METAR KUNV 280955Z AUTO 30007KT 10SM SCT031 M02/M08 A3016 RMK AO2 T10251076 =
2014-11-28 04:35 METAR KUNV 280935Z AUTO 30007KT 10SM SCT033 M02/M08 A3015 RMK AO2 T10231076 =
2014-11-28 04:15 METAR KUNV 280915Z AUTO 31008KT 10SM SCT040 M02/M08 A3015 RMK AO2 T10201079 =
2014-11-28 03:55 METAR KUNV 280855Z AUTO 31007G15KT 10SM BKN038 M02/M07 A3015 RMK AO2 T10161069 =
2014-11-28 03:35 METAR KUNV 280835Z AUTO 31012G17KT 10SM OVC036 M01/M06 A3014 RMK AO2 T10151061 =

Support USWX by starting your Amazon purchase here.